Details From OMDB - Dubai Intl
To YPAD - Adelaide Intl
Flight Number -
Tags Decoded
Created
Modified
Stats Distance 5,946 nm / 11,012 km
Max Altitude 0 ft / 0 m
Waypoints 2
Social Downloads 0
Likes 0
Share VATSIM

Download

Looking for another format? Having issues loading an existing format? Contact us
Advertisement - Login to hide

Notes

Decoded

Route

OMDB YPAD

ID Type Via Altitude Latitude Longitude Leg Dist Tot Dist Heading (true) Name
O OMDB APT - 0 ft / 0 m 25.26213˚ 55.34757˚ - 0 nm - -
O YPAD APT - 0 ft / 0 m -34.94168˚ 138.54233˚ 5946 nm 5946 nm 125° / 115° -

Altitude Profile

Advertisement - Login to hide

Weather


0- 5 10 15 20 25 30 35+ Temperature / ° C

Clouds and Precipitation
Forecast for 2018-05-23 00:00 UTC. Updated 3 hours ago

Ground ~20,000 ft ~40,000 ft Winds

OMDB

Details ICAO OMDB (DXB)
Name DUBAI INTL
Region United Arab Emirates
Timezone Asia/Dubai (UTC+4.0)
Stats Elevation 62 ft / 19 m (AMSL)
Location 25.254912° 55.364260°
Runways 2
Magnetic Variation 2.068° E

METAR

OMDB 230200Z 06003KT CAVOK 32/10 Q1009 NOSIG

Decode

TAF

TAF OMDB 222251Z 2300/2406 13005KT CAVOK BECMG 2303/2305 19012KT PROB30 2304/2308 4000 DU BECMG 2308/2310 32014KT BECMG 2316/2318 04005KT BECMG 2403/2405 17010KT

Decode

Departure Runways

ID Width Length Bearing (true) Bearing (mag) Surface Threshold Offset Overrun Length
12L 197 ft / 60 m 13,124 ft / 4,000 m 121.49° 119.42° Asphalt 1,312 ft / 400 m 395 ft / 120 m
12R 151 ft / 46 m 13,139 ft / 4,005 m 121.48° 119.41° Asphalt 394 ft / 120 m 197 ft / 60 m
30L 151 ft / 46 m 13,139 ft / 4,005 m 301.50° 299.43° Asphalt 2,953 ft / 900 m 197 ft / 60 m
30R 197 ft / 60 m 13,124 ft / 4,000 m 301.51° 299.44° Asphalt 0 ft / 0 m 395 ft / 120 m

YPAD

Details ICAO YPAD (ADL)
Name Adelaide Intl
Region Australia
Timezone Australia/Adelaide (UTC+9.5)
Stats Elevation 20 ft / 6 m (AMSL)
Location -34.947439° 138.529850°
Runways 2
Magnetic Variation 7.921° E

METAR

YPAD 230200Z 16009KT 9999 FEW030 BKN045 17/07 Q1030 FM0300 23008KT 9999 -SHRA FEW030 BKN040

Decode

TAF

TAF YPAD 222324Z 2300/2406 VRB05KT 9999 FEW030 BKN040 FM230300 23008KT 9999 -SHRA FEW030 BKN040 FM230900 13005KT 9999 FEW020 BKN035

Decode

Destination Runways

ID Width Length Bearing (true) Bearing (mag) Surface Threshold Offset Overrun Length
05 151 ft / 46 m 10,173 ft / 3,101 m 50.14° 42.22° Asphalt 518 ft / 158 m 0 ft / 0 m
12 151 ft / 46 m 5,414 ft / 1,650 m 123.61° 115.69° Asphalt 0 ft / 0 m 0 ft / 0 m
23 151 ft / 46 m 10,173 ft / 3,101 m 230.13° 222.21° Asphalt 0 ft / 0 m 203 ft / 62 m
30 151 ft / 46 m 5,414 ft / 1,650 m 303.60° 295.68° Asphalt 0 ft / 0 m 0 ft / 0 m

Approach Navaids

Runway Type Ident Frequency Range Bearing (true) Bearing (mag) Slope Elevation
23 Localiser IAD 109.70 MHz 18 nm / 33 km 230.13° 222.20° - 20 ft / 6 m (AMSL)
23 Glidescope IAD 109.70 MHz 10 nm / 19 km 230.13° 222.21° 3.00° 20 ft / 6 m (AMSL)

Popular Alternatives